createdAt,value
2018-11-06T00:01:11.186Z,97715.00
2018-11-06T00:03:47.370Z,97716.00
2018-11-06T00:06:17.690Z,97710.00
2018-11-06T00:08:48.035Z,97711.00
2018-11-06T00:11:19.088Z,97703.00
2018-11-06T00:13:49.481Z,97707.00
2018-11-06T00:16:19.944Z,97711.00
2018-11-06T00:18:50.411Z,97718.00
2018-11-06T00:21:20.759Z,97711.00
2018-11-06T00:23:51.180Z,97711.00
2018-11-06T00:26:26.670Z,97711.00
2018-11-06T00:28:57.240Z,97708.00
2018-11-06T00:31:27.610Z,97701.00
2018-11-06T00:34:04.900Z,97701.00
2018-11-06T00:36:35.197Z,97702.00
2018-11-06T00:39:07.034Z,97704.00
2018-11-06T00:41:37.435Z,97707.00
2018-11-06T00:44:07.900Z,97701.00
2018-11-06T00:46:38.328Z,97702.00
2018-11-06T00:49:09.515Z,97705.00
2018-11-06T00:51:39.938Z,97700.00
2018-11-06T00:54:10.573Z,97704.00
2018-11-06T00:56:40.907Z,97704.00
2018-11-06T00:59:11.246Z,97710.00
2018-11-06T01:01:41.713Z,97704.00
2018-11-06T01:04:13.676Z,97702.00
2018-11-06T01:06:44.048Z,97707.00
2018-11-06T01:09:15.722Z,97703.00
2018-11-06T01:11:46.028Z,97698.00
2018-11-06T01:14:16.432Z,97692.00
2018-11-06T01:16:46.771Z,97696.00
2018-11-06T01:19:17.250Z,97695.00
2018-11-06T01:21:47.552Z,97690.00
2018-11-06T01:24:17.853Z,97696.00
2018-11-06T01:26:48.399Z,97696.00
2018-11-06T01:29:18.744Z,97695.00
2018-11-06T01:31:49.065Z,97696.00
2018-11-06T01:34:19.400Z,97702.00
2018-11-06T01:36:49.797Z,97695.00
2018-11-06T01:39:20.246Z,97693.00
2018-11-06T01:41:50.447Z,97700.00
2018-11-06T01:44:20.870Z,97702.00
2018-11-06T01:46:51.177Z,97703.00
2018-11-06T01:49:21.697Z,97705.00
2018-11-06T01:51:52.004Z,97702.00
2018-11-06T01:54:22.391Z,97692.00
2018-11-06T01:56:52.805Z,97693.00
2018-11-06T01:59:23.261Z,97687.00
2018-11-06T02:01:53.415Z,97694.00
2018-11-06T02:04:23.795Z,97698.00
2018-11-06T02:06:54.174Z,97698.00
2018-11-06T02:09:24.428Z,97702.00
2018-11-06T02:11:54.811Z,97698.00
2018-11-06T02:14:25.320Z,97694.00
2018-11-06T02:16:55.707Z,97695.00
2018-11-06T02:19:26.161Z,97698.00
2018-11-06T02:21:56.437Z,97702.00
2018-11-06T02:24:26.819Z,97702.00
2018-11-06T02:26:57.339Z,97696.00
2018-11-06T02:29:27.622Z,97694.00
2018-11-06T02:31:57.955Z,97694.00
2018-11-06T02:34:28.428Z,97701.00
2018-11-06T02:36:58.588Z,97703.00
2018-11-06T02:39:28.927Z,97698.00
2018-11-06T02:41:59.251Z,97702.00
2018-11-06T02:44:29.723Z,97696.00
2018-11-06T02:47:00.113Z,97699.00
2018-11-06T02:49:30.443Z,97702.00
2018-11-06T02:52:00.862Z,97704.00
2018-11-06T02:54:31.235Z,97704.00
2018-11-06T02:57:01.538Z,97696.00
2018-11-06T02:59:31.939Z,97696.00
2018-11-06T03:02:02.381Z,97694.00
2018-11-06T03:04:32.918Z,97693.00
2018-11-06T03:07:03.112Z,97688.00
2018-11-06T03:09:33.663Z,97694.00
2018-11-06T03:12:03.886Z,97694.00
2018-11-06T03:14:34.212Z,97693.00
2018-11-06T03:17:04.565Z,97702.00
2018-11-06T03:19:34.981Z,97702.00
2018-11-06T03:22:05.335Z,97699.00
2018-11-06T03:24:35.498Z,97696.00
2018-11-06T03:27:05.932Z,97694.00
2018-11-06T03:29:36.378Z,97692.00
2018-11-06T03:32:07.011Z,97687.00
2018-11-06T03:34:38.896Z,97688.00
2018-11-06T03:37:09.533Z,97690.00
2018-11-06T03:39:39.698Z,97693.00
2018-11-06T03:42:10.092Z,97697.00
2018-11-06T03:44:40.630Z,97703.00
2018-11-06T03:47:11.062Z,97695.00
2018-11-06T03:49:41.622Z,97698.00
2018-11-06T03:52:11.816Z,97704.00
2018-11-06T03:54:42.195Z,97699.00
2018-11-06T03:57:12.594Z,97702.00
2018-11-06T03:59:43.066Z,97690.00
2018-11-06T04:02:13.371Z,97691.00
2018-11-06T04:04:43.877Z,97691.00
2018-11-06T04:07:14.394Z,97699.00
2018-11-06T04:09:44.862Z,97699.00
2018-11-06T04:12:15.128Z,97696.00
2018-11-06T04:14:45.558Z,97693.00
2018-11-06T04:17:15.970Z,97695.00
2018-11-06T04:19:46.509Z,97691.00
2018-11-06T04:22:16.835Z,97684.00
2018-11-06T04:24:47.327Z,97682.00
2018-11-06T04:27:17.902Z,97684.00
2018-11-06T04:29:48.528Z,97682.00
2018-11-06T04:32:19.089Z,97685.00
2018-11-06T04:34:49.419Z,97683.00
2018-11-06T04:37:19.688Z,97686.00
2018-11-06T04:39:50.071Z,97686.00
2018-11-06T04:42:20.648Z,97683.00
2018-11-06T04:44:50.915Z,97690.00
2018-11-06T04:47:21.339Z,97688.00
2018-11-06T04:49:51.723Z,97682.00
2018-11-06T04:52:22.189Z,97679.00
2018-11-06T04:54:52.429Z,97678.00
2018-11-06T04:57:22.808Z,97681.00
2018-11-06T04:59:53.214Z,97683.00
2018-11-06T05:02:23.693Z,97685.00
2018-11-06T05:04:54.016Z,97686.00
2018-11-06T05:07:24.392Z,97688.00
2018-11-06T05:09:54.889Z,97688.00
2018-11-06T05:12:25.299Z,97689.00
2018-11-06T05:14:55.517Z,97696.00
2018-11-06T05:17:25.982Z,97689.00
2018-11-06T05:19:56.434Z,97689.00
2018-11-06T05:22:26.937Z,97692.00
2018-11-06T05:24:57.460Z,97691.00
2018-11-06T05:27:28.013Z,97691.00
2018-11-06T05:29:58.308Z,97690.00
2018-11-06T05:32:28.670Z,97689.00
2018-11-06T05:34:59.207Z,97689.00
2018-11-06T05:37:29.660Z,97691.00
2018-11-06T05:40:16.391Z,97700.00
2018-11-06T05:42:46.800Z,97694.00
2018-11-06T05:45:17.112Z,97695.00
2018-11-06T05:47:47.422Z,97691.00
2018-11-06T05:50:17.910Z,97697.00
2018-11-06T05:52:48.405Z,97701.00
2018-11-06T05:55:18.732Z,97697.00
2018-11-06T05:57:49.161Z,97707.00
2018-11-06T06:00:19.794Z,97713.00
2018-11-06T06:02:50.007Z,97708.00
2018-11-06T06:05:20.421Z,97712.00
2018-11-06T06:07:50.838Z,97719.00
2018-11-06T06:10:21.323Z,97720.00
2018-11-06T06:12:51.651Z,97726.00
2018-11-06T06:15:22.011Z,97727.00
2018-11-06T06:17:52.639Z,97733.00
2018-11-06T06:20:23.273Z,97729.00
2018-11-06T06:22:53.760Z,97727.00
2018-11-06T06:25:24.177Z,97727.00
2018-11-06T06:27:54.676Z,97730.00
2018-11-06T06:30:25.248Z,97728.00
2018-11-06T06:32:55.756Z,97719.00
2018-11-06T06:35:26.350Z,97725.00
2018-11-06T06:37:56.717Z,97726.00
2018-11-06T06:40:27.062Z,97730.00
2018-11-06T06:42:57.496Z,97727.00
2018-11-06T06:45:27.919Z,97731.00
2018-11-06T06:47:58.240Z,97730.00
2018-11-06T06:50:28.529Z,97728.00
2018-11-06T06:52:58.995Z,97728.00
2018-11-06T06:55:29.345Z,97731.00
2018-11-06T06:57:59.703Z,97733.00
2018-11-06T07:00:30.080Z,97732.00
2018-11-06T07:03:00.477Z,97729.00
2018-11-06T07:05:30.821Z,97727.00
2018-11-06T07:08:01.258Z,97723.00
2018-11-06T07:10:31.858Z,97727.00
2018-11-06T07:13:02.211Z,97734.00
2018-11-06T07:15:32.883Z,97728.00
2018-11-06T07:18:03.232Z,97723.00
2018-11-06T07:20:33.650Z,97726.00
2018-11-06T07:23:04.116Z,97726.00
2018-11-06T07:25:34.569Z,97721.00
2018-11-06T07:28:05.394Z,97721.00
2018-11-06T07:30:35.575Z,97722.00
2018-11-06T07:33:05.996Z,97724.00
2018-11-06T07:35:37.554Z,97731.00
2018-11-06T07:38:07.662Z,97727.00
2018-11-06T07:40:38.127Z,97724.00
2018-11-06T07:43:08.480Z,97724.00
2018-11-06T07:45:38.902Z,97722.00
2018-11-06T07:48:09.237Z,97724.00
2018-11-06T07:50:39.642Z,97715.00
2018-11-06T07:53:10.060Z,97712.00
2018-11-06T07:55:40.494Z,97714.00
2018-11-06T07:58:10.814Z,97714.00
2018-11-06T08:00:41.377Z,97714.00
2018-11-06T08:03:11.676Z,97714.00
2018-11-06T08:05:42.038Z,97721.00
2018-11-06T08:08:12.263Z,97719.00
2018-11-06T08:10:42.652Z,97719.00
2018-11-06T08:13:12.901Z,97721.00
2018-11-06T08:15:43.301Z,97723.00
2018-11-06T08:18:13.822Z,97724.00
2018-11-06T08:20:44.463Z,97720.00
2018-11-06T08:23:14.752Z,97717.00
2018-11-06T08:25:45.345Z,97724.00
2018-11-06T08:28:15.945Z,97727.00
2018-11-06T08:30:46.563Z,97722.00
2018-11-06T08:33:16.824Z,97729.00
2018-11-06T08:35:47.332Z,97733.00
2018-11-06T08:38:17.722Z,97737.00
2018-11-06T08:40:48.289Z,97731.00
2018-11-06T08:43:18.634Z,97720.00
2018-11-06T08:45:49.142Z,97713.00
2018-11-06T08:48:19.485Z,97708.00
2018-11-06T08:50:49.743Z,97713.00
2018-11-06T08:53:20.109Z,97717.00
2018-11-06T08:55:50.470Z,97718.00
2018-11-06T08:58:20.850Z,97713.00
2018-11-06T09:00:51.289Z,97711.00
2018-11-06T09:03:21.810Z,97714.00
2018-11-06T09:05:52.235Z,97713.00
2018-11-06T09:08:22.395Z,97720.00
2018-11-06T09:10:52.837Z,97715.00
2018-11-06T09:13:23.288Z,97720.00
2018-11-06T09:15:53.773Z,97724.00
2018-11-06T09:18:24.131Z,97718.00
2018-11-06T09:20:54.543Z,97718.00
2018-11-06T09:23:25.015Z,97717.00
2018-11-06T09:25:55.469Z,97719.00
2018-11-06T09:28:25.736Z,97723.00
2018-11-06T09:30:56.106Z,97727.00
2018-11-06T09:33:26.622Z,97725.00
2018-11-06T09:35:57.096Z,97725.00
2018-11-06T09:38:27.575Z,97718.00
2018-11-06T09:40:57.927Z,97719.00
2018-11-06T09:43:28.187Z,97715.00
2018-11-06T09:45:58.575Z,97706.00
2018-11-06T09:48:28.850Z,97698.00
2018-11-06T09:50:59.332Z,97701.00
2018-11-06T09:53:29.546Z,97701.00
2018-11-06T09:55:59.848Z,97694.00
2018-11-06T09:58:30.094Z,97691.00
2018-11-06T10:01:00.271Z,97693.00
2018-11-06T10:03:30.547Z,97693.00
2018-11-06T10:06:00.887Z,97688.00
2018-11-06T10:08:31.344Z,97683.00
2018-11-06T10:11:01.746Z,97677.00
2018-11-06T10:13:32.096Z,97670.00
2018-11-06T10:16:02.581Z,97676.00
2018-11-06T10:18:32.894Z,97676.00
2018-11-06T10:21:03.561Z,97670.00
2018-11-06T10:23:34.033Z,97670.00
2018-11-06T10:26:04.479Z,97669.00
2018-11-06T10:28:34.764Z,97665.00
2018-11-06T10:31:05.382Z,97663.00
2018-11-06T10:33:35.878Z,97666.00
2018-11-06T10:36:06.406Z,97659.00
2018-11-06T10:38:36.801Z,97661.00
2018-11-06T10:41:07.247Z,97659.00
2018-11-06T10:43:38.039Z,97661.00
2018-11-06T10:46:08.404Z,97654.00
2018-11-06T10:48:38.715Z,97649.00
2018-11-06T10:51:09.161Z,97647.00
2018-11-06T10:53:39.409Z,97647.00
2018-11-06T10:56:09.824Z,97644.00
2018-11-06T10:58:40.390Z,97638.00
2018-11-06T11:01:15.911Z,97640.00
2018-11-06T11:03:51.446Z,97639.00
2018-11-06T11:06:21.883Z,97637.00
2018-11-06T11:08:52.181Z,97628.00
2018-11-06T11:11:22.622Z,97627.00
2018-11-06T11:13:53.010Z,97624.00
2018-11-06T11:16:23.372Z,97623.00
2018-11-06T11:18:53.972Z,97621.00
2018-11-06T11:21:24.425Z,97628.00
2018-11-06T11:23:54.776Z,97617.00
2018-11-06T11:26:25.260Z,97622.00
2018-11-06T11:28:55.675Z,97618.00
2018-11-06T11:31:26.181Z,97613.00
2018-11-06T11:33:56.496Z,97605.00
2018-11-06T11:36:26.971Z,97608.00
2018-11-06T11:38:57.329Z,97602.00
2018-11-06T11:41:27.793Z,97601.00
2018-11-06T11:43:58.159Z,97600.00
2018-11-06T11:46:28.488Z,97595.00
2018-11-06T11:48:58.689Z,97588.00
2018-11-06T11:51:29.005Z,97588.00
2018-11-06T11:53:59.240Z,97583.00
2018-11-06T11:56:30.150Z,97582.00
2018-11-06T11:59:00.366Z,97585.00
2018-11-06T12:01:30.773Z,97579.00
2018-11-06T12:04:01.124Z,97568.00
2018-11-06T12:06:31.493Z,97575.00
2018-11-06T12:09:01.939Z,97580.00
2018-11-06T12:11:32.366Z,97574.00
2018-11-06T12:14:02.951Z,97571.00
2018-11-06T12:16:33.228Z,97573.00
2018-11-06T12:19:03.495Z,97570.00
2018-11-06T12:21:33.951Z,97573.00
2018-11-06T12:24:05.017Z,97573.00
2018-11-06T12:26:35.445Z,97563.00
2018-11-06T12:29:05.963Z,97566.00
2018-11-06T12:31:36.222Z,97564.00
2018-11-06T12:34:07.048Z,97563.00
2018-11-06T12:36:37.614Z,97563.00
2018-11-06T12:39:10.157Z,97559.00
2018-11-06T12:41:40.622Z,97561.00
2018-11-06T12:44:11.169Z,97557.00
2018-11-06T12:46:41.498Z,97553.00
2018-11-06T12:49:11.856Z,97555.00
2018-11-06T12:51:42.335Z,97557.00
2018-11-06T12:54:12.636Z,97552.00
2018-11-06T12:56:43.024Z,97558.00
2018-11-06T12:59:13.332Z,97555.00
2018-11-06T13:01:43.776Z,97551.00
2018-11-06T13:04:14.257Z,97553.00
2018-11-06T13:06:44.609Z,97548.00
2018-11-06T13:09:15.092Z,97555.00
2018-11-06T13:11:45.492Z,97543.00
2018-11-06T13:14:15.750Z,97544.00
2018-11-06T13:16:46.126Z,97540.00
2018-11-06T13:19:16.414Z,97539.00
2018-11-06T13:21:46.769Z,97535.00
2018-11-06T13:24:17.132Z,97543.00
2018-11-06T13:26:47.523Z,97540.00
2018-11-06T13:29:18.035Z,97543.00
2018-11-06T13:31:48.588Z,97538.00
2018-11-06T13:34:18.801Z,97539.00
2018-11-06T13:36:49.338Z,97544.00
2018-11-06T13:39:19.583Z,97542.00
2018-11-06T13:41:50.088Z,97547.00
2018-11-06T13:44:21.296Z,97547.00
2018-11-06T13:46:51.580Z,97539.00
2018-11-06T13:49:21.972Z,97541.00
2018-11-06T13:51:52.494Z,97545.00
2018-11-06T13:54:22.754Z,97543.00
2018-11-06T13:56:53.272Z,97542.00
2018-11-06T13:59:23.726Z,97545.00
2018-11-06T14:01:54.215Z,97545.00
2018-11-06T14:04:24.511Z,97546.00
2018-11-06T14:06:54.887Z,97537.00
2018-11-06T14:09:25.360Z,97540.00
2018-11-06T14:11:55.787Z,97537.00
2018-11-06T14:14:26.128Z,97540.00
2018-11-06T14:16:56.482Z,97540.00
2018-11-06T14:19:26.866Z,97543.00
2018-11-06T14:21:57.176Z,97535.00
2018-11-06T14:24:27.657Z,97537.00
2018-11-06T14:26:58.162Z,97534.00
2018-11-06T14:29:28.375Z,97540.00
2018-11-06T14:31:58.723Z,97538.00
2018-11-06T14:34:29.029Z,97540.00
2018-11-06T14:36:59.248Z,97540.00
2018-11-06T14:39:29.454Z,97528.00
2018-11-06T14:42:00.280Z,97531.00
2018-11-06T14:44:30.660Z,97528.00
2018-11-06T14:47:01.188Z,97526.00
2018-11-06T14:49:31.336Z,97526.00
2018-11-06T14:52:01.844Z,97524.00
2018-11-06T14:54:32.150Z,97526.00
2018-11-06T14:57:02.455Z,97524.00
2018-11-06T14:59:32.852Z,97530.00
2018-11-06T15:02:03.343Z,97527.00
2018-11-06T15:04:33.615Z,97529.00
2018-11-06T15:07:03.979Z,97527.00
2018-11-06T15:09:34.443Z,97528.00
2018-11-06T15:12:04.810Z,97527.00
2018-11-06T15:14:35.162Z,97529.00
2018-11-06T15:17:05.490Z,97526.00
2018-11-06T15:19:35.784Z,97526.00
2018-11-06T15:22:06.307Z,97522.00
2018-11-06T15:24:36.882Z,97522.00
2018-11-06T15:27:07.377Z,97519.00
2018-11-06T15:29:37.696Z,97523.00
2018-11-06T15:32:08.103Z,97525.00
2018-11-06T15:34:39.019Z,97523.00
2018-11-06T15:37:09.429Z,97525.00
2018-11-06T15:39:39.787Z,97525.00
2018-11-06T15:42:10.310Z,97529.00
2018-11-06T15:44:40.521Z,97532.00
2018-11-06T15:47:11.030Z,97530.00
2018-11-06T15:49:41.454Z,97536.00
2018-11-06T15:52:11.750Z,97539.00
2018-11-06T15:54:42.314Z,97536.00
2018-11-06T15:57:12.861Z,97533.00
2018-11-06T15:59:43.318Z,97537.00
2018-11-06T16:02:13.899Z,97539.00
2018-11-06T16:04:44.184Z,97541.00
2018-11-06T16:07:15.251Z,97549.00
2018-11-06T16:09:45.596Z,97550.00
2018-11-06T16:12:16.047Z,97551.00
2018-11-06T16:14:46.637Z,97552.00
2018-11-06T16:17:16.957Z,97548.00
2018-11-06T16:19:47.607Z,97548.00
2018-11-06T16:22:18.165Z,97547.00
2018-11-06T16:24:48.954Z,97551.00
2018-11-06T16:27:19.507Z,97545.00
2018-11-06T16:29:50.594Z,97548.00
2018-11-06T16:32:20.978Z,97541.00
2018-11-06T16:34:51.459Z,97540.00
2018-11-06T16:37:22.448Z,97535.00
2018-11-06T16:39:52.959Z,97535.00
2018-11-06T16:42:23.263Z,97542.00
2018-11-06T16:44:53.581Z,97544.00
2018-11-06T16:47:23.948Z,97545.00
2018-11-06T16:49:54.506Z,97540.00
2018-11-06T16:52:25.602Z,97538.00
2018-11-06T16:54:56.136Z,97534.00
2018-11-06T16:57:26.576Z,97541.00
2018-11-06T16:59:56.785Z,97540.00
2018-11-06T17:02:27.350Z,97551.00
2018-11-06T17:04:57.834Z,97552.00
2018-11-06T17:07:28.148Z,97550.00
2018-11-06T17:09:58.539Z,97547.00
2018-11-06T17:12:29.041Z,97539.00
2018-11-06T17:14:59.300Z,97541.00
2018-11-06T17:17:29.519Z,97544.00
2018-11-06T17:19:59.847Z,97538.00
2018-11-06T17:22:30.120Z,97528.00
2018-11-06T17:25:00.520Z,97532.00
2018-11-06T17:27:31.547Z,97535.00
2018-11-06T17:30:02.009Z,97535.00
2018-11-06T17:32:32.469Z,97534.00
2018-11-06T17:35:02.727Z,97534.00
2018-11-06T17:37:34.054Z,97531.00
2018-11-06T17:40:04.439Z,97529.00
2018-11-06T17:42:37.671Z,97530.00
2018-11-06T17:45:11.041Z,97531.00
2018-11-06T17:47:41.665Z,97532.00
2018-11-06T17:50:13.419Z,97535.00
2018-11-06T17:52:43.757Z,97538.00
2018-11-06T17:55:15.650Z,97543.00
2018-11-06T17:57:45.946Z,97536.00
2018-11-06T18:00:19.826Z,97535.00
2018-11-06T18:02:50.281Z,97531.00
2018-11-06T18:05:22.059Z,97531.00
2018-11-06T18:07:52.464Z,97531.00
2018-11-06T18:10:23.202Z,97531.00
2018-11-06T18:12:53.716Z,97531.00
2018-11-06T18:15:24.044Z,97531.00
2018-11-06T18:17:54.640Z,97529.00
2018-11-06T18:20:24.898Z,97533.00
2018-11-06T18:22:55.832Z,97534.00
2018-11-06T18:25:26.114Z,97535.00
2018-11-06T18:27:57.304Z,97538.00
2018-11-06T18:30:27.581Z,97535.00
2018-11-06T18:32:57.968Z,97533.00
2018-11-06T18:35:28.422Z,97537.00
2018-11-06T18:37:58.830Z,97534.00
2018-11-06T18:40:28.899Z,97534.00
2018-11-06T18:42:59.273Z,97536.00
2018-11-06T18:45:29.368Z,97536.00
2018-11-06T18:47:59.680Z,97538.00
2018-11-06T18:50:29.976Z,97534.00
2018-11-06T18:53:00.278Z,97530.00
2018-11-06T18:55:30.629Z,97530.00
2018-11-06T18:58:01.117Z,97536.00
2018-11-06T19:00:31.527Z,97534.00
2018-11-06T19:03:02.228Z,97536.00
2018-11-06T19:05:32.665Z,97531.00
2018-11-06T19:08:03.245Z,97536.00
2018-11-06T19:10:33.549Z,97542.00
2018-11-06T19:13:03.847Z,97539.00
2018-11-06T19:15:34.296Z,97542.00
2018-11-06T19:18:04.718Z,97543.00
2018-11-06T19:20:35.065Z,97545.00
2018-11-06T19:23:05.899Z,97541.00
2018-11-06T19:25:36.643Z,97540.00
2018-11-06T19:28:07.683Z,97539.00
2018-11-06T19:30:38.249Z,97544.00
2018-11-06T19:33:08.412Z,97534.00
2018-11-06T19:35:38.934Z,97536.00
2018-11-06T19:38:08.953Z,97535.00
2018-11-06T19:40:39.473Z,97541.00
2018-11-06T19:43:09.875Z,97541.00
2018-11-06T19:45:40.419Z,97543.00
2018-11-06T19:48:10.807Z,97544.00
2018-11-06T19:50:41.941Z,97546.00
2018-11-06T19:53:12.544Z,97555.00
2018-11-06T19:55:42.942Z,97555.00
2018-11-06T19:58:13.226Z,97554.00
2018-11-06T20:00:43.609Z,97552.00
2018-11-06T20:03:13.954Z,97550.00
2018-11-06T20:05:44.380Z,97551.00
2018-11-06T20:08:14.700Z,97558.00
2018-11-06T20:10:45.133Z,97559.00
2018-11-06T20:13:15.336Z,97552.00
2018-11-06T20:15:45.744Z,97556.00
2018-11-06T20:18:16.214Z,97553.00
2018-11-06T20:20:46.728Z,97551.00
2018-11-06T20:23:17.073Z,97549.00
2018-11-06T20:25:47.524Z,97548.00
2018-11-06T20:28:18.016Z,97546.00
2018-11-06T20:30:48.575Z,97549.00
2018-11-06T20:33:19.035Z,97551.00
2018-11-06T20:35:49.250Z,97552.00
2018-11-06T20:38:19.752Z,97546.00
2018-11-06T20:40:50.340Z,97546.00
2018-11-06T20:43:20.804Z,97544.00
2018-11-06T20:45:51.141Z,97535.00
2018-11-06T20:48:21.692Z,97542.00
2018-11-06T20:50:52.344Z,97547.00
2018-11-06T20:53:23.094Z,97544.00
2018-11-06T20:55:53.291Z,97538.00
2018-11-06T20:58:23.793Z,97550.00
2018-11-06T21:00:54.610Z,97544.00
2018-11-06T21:03:25.119Z,97548.00
2018-11-06T21:05:55.755Z,97546.00
2018-11-06T21:08:26.312Z,97549.00
2018-11-06T21:10:57.004Z,97544.00
2018-11-06T21:13:27.625Z,97544.00
2018-11-06T21:15:57.931Z,97540.00
2018-11-06T21:18:28.361Z,97535.00
2018-11-06T21:20:59.270Z,97537.00
2018-11-06T21:23:29.726Z,97531.00
2018-11-06T21:26:00.261Z,97530.00
2018-11-06T21:28:30.394Z,97533.00
2018-11-06T21:31:00.742Z,97526.00
2018-11-06T21:33:31.077Z,97527.00
2018-11-06T21:36:01.363Z,97529.00
2018-11-06T21:38:31.786Z,97528.00
2018-11-06T21:41:02.113Z,97532.00
2018-11-06T21:43:32.406Z,97532.00
2018-11-06T21:46:03.443Z,97531.00
2018-11-06T21:48:33.824Z,97536.00
2018-11-06T21:51:04.370Z,97535.00
2018-11-06T21:53:34.794Z,97529.00
2018-11-06T21:56:05.115Z,97529.00
2018-11-06T21:58:35.635Z,97532.00
2018-11-06T22:01:06.057Z,97530.00
2018-11-06T22:03:36.415Z,97532.00
2018-11-06T22:06:06.843Z,97527.00
2018-11-06T22:08:37.283Z,97531.00
2018-11-06T22:11:07.740Z,97527.00
2018-11-06T22:13:38.106Z,97530.00
2018-11-06T22:16:08.509Z,97532.00
2018-11-06T22:18:39.079Z,97531.00
2018-11-06T22:21:09.575Z,97526.00
2018-11-06T22:23:39.964Z,97525.00
2018-11-06T22:26:10.386Z,97523.00
2018-11-06T22:28:40.833Z,97526.00
2018-11-06T22:31:11.162Z,97526.00
2018-11-06T22:33:41.644Z,97531.00
2018-11-06T22:36:12.245Z,97534.00
2018-11-06T22:38:42.556Z,97525.00
2018-11-06T22:41:12.926Z,97521.00
2018-11-06T22:43:43.404Z,97520.00
2018-11-06T22:46:13.891Z,97529.00
2018-11-06T22:48:44.694Z,97527.00
2018-11-06T22:51:14.868Z,97529.00
2018-11-06T22:53:45.420Z,97524.00
2018-11-06T22:56:15.897Z,97514.00
2018-11-06T22:58:46.390Z,97514.00
2018-11-06T23:01:21.723Z,97516.00
2018-11-06T23:03:52.789Z,97514.00
2018-11-06T23:06:23.415Z,97518.00
2018-11-06T23:08:53.872Z,97520.00
2018-11-06T23:11:24.452Z,97525.00
2018-11-06T23:13:54.799Z,97514.00
2018-11-06T23:16:25.178Z,97512.00
2018-11-06T23:18:55.634Z,97511.00
2018-11-06T23:21:25.954Z,97507.00
2018-11-06T23:23:56.540Z,97506.00
2018-11-06T23:26:26.915Z,97507.00
2018-11-06T23:28:57.220Z,97505.00
2018-11-06T23:31:27.715Z,97508.00
2018-11-06T23:33:58.185Z,97513.00
2018-11-06T23:36:28.391Z,97506.00
2018-11-06T23:38:58.862Z,97516.00
2018-11-06T23:41:29.170Z,97520.00
2018-11-06T23:43:59.814Z,97515.00
2018-11-06T23:46:30.125Z,97517.00
2018-11-06T23:49:00.319Z,97519.00
2018-11-06T23:51:30.580Z,97518.00
2018-11-06T23:54:01.077Z,97513.00
2018-11-06T23:56:31.402Z,97511.00
2018-11-06T23:59:01.935Z,97503.00
